Terminal Aerodrome Forecast
Issued by NWS Charleston, WV

Current Version | Previous Version | Graphics & Text | Print | Product List | Glossary On
Versions: 1 2 3 4 5 6 7 8 9 10 11 12 13 14 15 16 17 18 19 20 21 22 23 24
000
FTUS41 KRLX 210829 AAA
TAFHTS
TAF AMD
KHTS 210829Z 2108/2206 02005KT P6SM BKN050
      TEMPO 2109/2112 4SM -RA BKN040
     FM211700 32005KT P6SM SCT025
     FM212000 32007KT P6SM BKN025
     FM220200 30005KT P6SM SCT025
     FM220400 VRB03KT P6SM SCT025=

USA.gov is the U.S. government's official web portal to all federal, state and local government web resources and services.